createdAt,value
2024-03-02T00:00:53.579Z,100254.13
2024-03-02T00:03:21.604Z,100252.34
2024-03-02T00:05:53.103Z,100247.22
2024-03-02T00:08:29.058Z,100245.38
2024-03-02T00:11:00.500Z,100251.47
2024-03-02T00:13:27.705Z,100255.00
2024-03-02T00:15:57.347Z,100251.47
2024-03-02T00:18:29.158Z,100249.75
2024-03-02T00:20:58.262Z,100247.03
2024-03-02T00:23:28.017Z,100247.91
2024-03-02T00:25:58.055Z,100241.69
2024-03-02T00:28:26.796Z,100252.19
2024-03-02T00:31:03.936Z,100251.16
2024-03-02T00:33:36.011Z,100252.00
2024-03-02T00:36:04.640Z,100243.31
2024-03-02T00:38:31.955Z,100243.22
2024-03-02T00:41:00.972Z,100241.53
2024-03-02T00:43:45.788Z,100240.66
2024-03-02T00:46:17.055Z,100228.50
2024-03-02T00:48:49.756Z,100233.47
2024-03-02T00:51:16.655Z,100236.06
2024-03-02T00:53:43.639Z,100236.13
2024-03-02T00:56:13.616Z,100237.91
2024-03-02T00:58:40.878Z,100235.19
2024-03-02T01:01:08.913Z,100231.63
2024-03-02T01:03:35.865Z,100243.97
2024-03-02T01:06:03.614Z,100235.19
2024-03-02T01:08:30.414Z,100234.22
2024-03-02T01:10:57.320Z,100227.19
2024-03-02T01:13:24.974Z,100226.13
2024-03-02T01:15:51.930Z,100230.44
2024-03-02T01:18:19.159Z,100235.75
2024-03-02T01:20:46.156Z,100232.28
2024-03-02T01:23:13.264Z,100228.72
2024-03-02T01:25:40.017Z,100224.28
2024-03-02T01:28:07.163Z,100223.28
2024-03-02T01:30:34.069Z,100223.28
2024-03-02T01:33:01.630Z,100216.25
2024-03-02T01:35:29.375Z,100216.25
2024-03-02T01:37:56.171Z,100207.41
2024-03-02T01:40:24.883Z,100203.84
2024-03-02T01:42:51.972Z,100206.50
2024-03-02T01:45:19.172Z,100203.72
2024-03-02T01:47:46.041Z,100201.81
2024-03-02T01:50:13.059Z,100202.22
2024-03-02T01:52:39.936Z,100201.28
2024-03-02T01:55:07.610Z,100195.81
2024-03-02T01:57:35.477Z,100183.41
2024-03-02T02:00:02.758Z,100181.66
2024-03-02T02:02:38.606Z,100180.63
2024-03-02T02:05:05.590Z,100176.25
2024-03-02T02:07:32.763Z,100183.28
2024-03-02T02:10:00.204Z,100177.22
2024-03-02T02:12:27.180Z,100171.16
2024-03-02T02:14:55.007Z,100172.19
2024-03-02T02:17:21.903Z,100174.88
2024-03-02T02:19:51.714Z,100169.53
2024-03-02T02:22:18.530Z,100167.69
2024-03-02T02:24:45.445Z,100169.34
2024-03-02T02:27:15.901Z,100162.44
2024-03-02T02:29:43.362Z,100161.63
2024-03-02T02:32:10.435Z,100159.91
2024-03-02T02:34:37.356Z,100169.66
2024-03-02T02:37:04.181Z,100171.50
2024-03-02T02:39:31.161Z,100168.84
2024-03-02T02:41:58.072Z,100167.13
2024-03-02T02:44:25.362Z,100168.75
2024-03-02T02:46:58.400Z,100162.50
2024-03-02T02:49:25.164Z,100161.75
2024-03-02T02:51:52.047Z,100170.38
2024-03-02T02:54:18.951Z,100176.56
2024-03-02T02:56:46.295Z,100172.00
2024-03-02T02:59:13.296Z,100173.84
2024-03-02T03:01:41.248Z,100178.25
2024-03-02T03:04:08.089Z,100179.16
2024-03-02T03:06:34.982Z,100180.09
2024-03-02T03:09:01.807Z,100175.13
2024-03-02T03:11:28.641Z,100175.19
2024-03-02T03:13:55.971Z,100167.72
2024-03-02T03:16:22.887Z,100166.94
2024-03-02T03:18:52.958Z,100166.00
2024-03-02T03:21:22.939Z,100168.53
2024-03-02T03:23:49.769Z,100174.72
2024-03-02T03:26:19.593Z,100168.50
2024-03-02T03:28:46.372Z,100161.56
2024-03-02T03:31:13.651Z,100170.81
2024-03-02T03:33:40.553Z,100168.06
2024-03-02T03:36:07.616Z,100167.41
2024-03-02T03:38:34.476Z,100168.56
2024-03-02T03:41:01.284Z,100167.66
2024-03-02T03:43:28.103Z,100171.03
2024-03-02T03:45:54.997Z,100175.25
2024-03-02T03:48:21.984Z,100174.78
2024-03-02T03:50:54.782Z,100174.44
2024-03-02T03:53:21.728Z,100172.03
2024-03-02T03:55:50.536Z,100174.44
2024-03-02T03:58:21.322Z,100175.25
2024-03-02T04:00:49.562Z,100179.00
2024-03-02T04:03:16.517Z,100187.75
2024-03-02T04:05:43.431Z,100184.59
2024-03-02T04:08:10.269Z,100183.81
2024-03-02T04:10:37.165Z,100195.25
2024-03-02T04:13:04.109Z,100192.78
2024-03-02T04:15:31.059Z,100185.75
2024-03-02T04:17:58.274Z,100192.59
2024-03-02T04:20:25.300Z,100195.16
2024-03-02T04:22:52.102Z,100189.38
2024-03-02T04:25:18.902Z,100192.56
2024-03-02T04:27:45.782Z,100198.63
2024-03-02T04:30:13.087Z,100194.06
2024-03-02T04:32:40.214Z,100198.72
2024-03-02T04:35:09.680Z,100199.22
2024-03-02T04:37:36.429Z,100197.44
2024-03-02T04:40:03.391Z,100212.19
2024-03-02T04:42:33.470Z,100201.34
2024-03-02T04:45:00.323Z,100199.50
2024-03-02T04:47:27.108Z,100209.84
2024-03-02T04:49:53.932Z,100214.13
2024-03-02T04:52:20.749Z,100204.31
2024-03-02T04:55:06.235Z,100211.34
2024-03-02T04:57:33.031Z,100220.22
2024-03-02T05:00:00.025Z,100221.03
2024-03-02T05:02:26.931Z,100224.59
2024-03-02T05:04:53.712Z,100227.06
2024-03-02T05:07:20.519Z,100227.16
2024-03-02T05:09:50.434Z,100227.38
2024-03-02T05:12:30.784Z,100228.91
2024-03-02T05:15:04.022Z,100237.84
2024-03-02T05:17:30.843Z,100238.06
2024-03-02T05:20:05.286Z,100246.72
2024-03-02T05:22:32.077Z,100246.72
2024-03-02T05:25:01.262Z,100251.00
2024-03-02T05:27:28.726Z,100247.63
2024-03-02T05:29:55.539Z,100235.88
2024-03-02T05:32:22.528Z,100244.19
2024-03-02T05:34:49.353Z,100243.59
2024-03-02T05:37:16.178Z,100253.44
2024-03-02T05:39:44.652Z,100252.50
2024-03-02T05:42:11.938Z,100250.50
2024-03-02T05:44:38.894Z,100256.72
2024-03-02T05:47:06.612Z,100255.66
2024-03-02T05:49:33.391Z,100272.50
2024-03-02T05:52:00.297Z,100272.72
2024-03-02T05:54:27.124Z,100283.31
2024-03-02T05:56:54.061Z,100288.31
2024-03-02T05:59:20.887Z,100281.09
2024-03-02T06:01:48.330Z,100268.72
2024-03-02T06:04:15.495Z,100275.66
2024-03-02T06:06:42.418Z,100280.97
2024-03-02T06:09:09.596Z,100277.19
2024-03-02T06:11:37.815Z,100272.69
2024-03-02T06:14:08.501Z,100278.78
2024-03-02T06:16:35.651Z,100272.13
2024-03-02T06:19:02.638Z,100271.78
2024-03-02T06:21:29.774Z,100277.09
2024-03-02T06:23:58.344Z,100281.28
2024-03-02T06:26:26.233Z,100276.19
2024-03-02T06:28:53.513Z,100283.38
2024-03-02T06:31:21.206Z,100279.75
2024-03-02T06:33:48.047Z,100278.22
2024-03-02T06:36:17.013Z,100278.63
2024-03-02T06:38:44.062Z,100282.81
2024-03-02T06:41:10.964Z,100277.47
2024-03-02T06:43:37.771Z,100283.72
2024-03-02T06:46:04.828Z,100288.09
2024-03-02T06:48:31.824Z,100280.25
2024-03-02T06:50:59.695Z,100282.06
2024-03-02T06:53:26.848Z,100292.38
2024-03-02T06:55:53.644Z,100286.34
2024-03-02T06:58:20.824Z,100288.16
2024-03-02T07:00:49.118Z,100283.63
2024-03-02T07:03:15.992Z,100289.69
2024-03-02T07:05:43.281Z,100302.06
2024-03-02T07:08:10.292Z,100309.84
2024-03-02T07:10:37.141Z,100302.56
2024-03-02T07:13:04.122Z,100302.06
2024-03-02T07:15:49.581Z,100294.69
2024-03-02T07:18:16.697Z,100294.72
2024-03-02T07:20:43.499Z,100299.44
2024-03-02T07:23:10.602Z,100302.69
2024-03-02T07:28:08.696Z,100312.84
2024-03-02T07:30:36.227Z,100308.38
2024-03-02T07:33:03.157Z,100304.75
2024-03-02T07:35:32.823Z,100318.94
2024-03-02T07:37:59.791Z,100327.72
2024-03-02T07:40:27.231Z,100324.13
2024-03-02T07:42:57.573Z,100333.47
2024-03-02T07:45:25.485Z,100342.19
2024-03-02T07:47:52.332Z,100350.78
2024-03-02T07:50:19.174Z,100343.50
2024-03-02T07:52:46.018Z,100350.94
2024-03-02T07:55:12.812Z,100356.97
2024-03-02T07:57:41.197Z,100356.91
2024-03-02T08:00:08.530Z,100345.13
2024-03-02T08:02:39.002Z,100354.25
2024-03-02T08:05:05.834Z,100355.72
2024-03-02T08:07:32.625Z,100357.31
2024-03-02T08:10:02.597Z,100359.84
2024-03-02T08:12:29.931Z,100360.13
2024-03-02T08:14:57.269Z,100356.59
2024-03-02T08:17:24.416Z,100360.16
2024-03-02T08:19:51.243Z,100364.84
2024-03-02T08:22:18.094Z,100367.22
2024-03-02T08:24:44.923Z,100369.72
2024-03-02T08:27:11.814Z,100370.19
2024-03-02T08:29:38.605Z,100369.88
2024-03-02T08:32:06.864Z,100373.75
2024-03-02T08:34:33.766Z,100384.59
2024-03-02T08:37:00.839Z,100380.25
2024-03-02T08:39:27.740Z,100385.41
2024-03-02T08:41:54.690Z,100386.28
2024-03-02T08:44:21.549Z,100396.09
2024-03-02T08:46:48.514Z,100391.56
2024-03-02T08:49:15.319Z,100396.81
2024-03-02T08:51:43.233Z,100383.16
2024-03-02T08:54:14.623Z,100396.72
2024-03-02T08:56:42.135Z,100392.59
2024-03-02T08:59:08.963Z,100392.13
2024-03-02T09:01:35.922Z,100401.88
2024-03-02T09:04:03.739Z,100412.38
2024-03-02T09:06:30.683Z,100400.94
2024-03-02T09:08:57.622Z,100417.53
2024-03-02T09:11:25.232Z,100408.59
2024-03-02T09:13:52.139Z,100408.88
2024-03-02T09:16:19.148Z,100405.25
2024-03-02T09:18:46.931Z,100409.28
2024-03-02T09:21:13.747Z,100413.56
2024-03-02T09:23:41.629Z,100416.50
2024-03-02T09:26:08.502Z,100415.44
2024-03-02T09:28:35.887Z,100419.47
2024-03-02T09:31:02.768Z,100417.81
2024-03-02T09:33:29.617Z,100415.75
2024-03-02T09:35:56.453Z,100419.38
2024-03-02T09:38:23.333Z,100418.28
2024-03-02T09:40:50.607Z,100420.72
2024-03-02T09:43:18.160Z,100414.38
2024-03-02T09:45:45.687Z,100418.81
2024-03-02T09:48:12.506Z,100412.47
2024-03-02T09:50:40.462Z,100409.75
2024-03-02T09:53:09.032Z,100405.81
2024-03-02T09:55:35.886Z,100408.66
2024-03-02T09:58:03.459Z,100409.63
2024-03-02T10:00:30.351Z,100412.94
2024-03-02T10:03:00.785Z,100414.63
2024-03-02T10:05:31.877Z,100409.28
2024-03-02T10:08:03.453Z,100416.41
2024-03-02T10:10:42.248Z,100409.84
2024-03-02T10:13:10.134Z,100409.09
2024-03-02T10:15:42.249Z,100399.50
2024-03-02T10:18:13.515Z,100408.72
2024-03-02T10:20:41.322Z,100408.72
2024-03-02T10:23:12.690Z,100401.03
2024-03-02T10:25:46.752Z,100405.34
2024-03-02T10:28:19.560Z,100402.94
2024-03-02T10:30:50.647Z,100396.75
2024-03-02T10:33:18.714Z,100403.13
2024-03-02T10:35:45.632Z,100399.09
2024-03-02T10:38:12.964Z,100401.00
2024-03-02T10:40:40.573Z,100402.31
2024-03-02T10:43:09.208Z,100401.44
2024-03-02T10:45:36.270Z,100406.44
2024-03-02T10:48:04.052Z,100407.03
2024-03-02T10:50:31.628Z,100410.22
2024-03-02T10:52:58.644Z,100404.75
2024-03-02T10:55:25.978Z,100414.03
2024-03-02T10:57:58.585Z,100412.09
2024-03-02T11:00:34.606Z,100408.97
2024-03-02T11:03:11.570Z,100412.22
2024-03-02T11:05:42.535Z,100406.63
2024-03-02T11:08:14.021Z,100403.34
2024-03-02T11:10:55.074Z,100411.75
2024-03-02T11:13:25.741Z,100399.41
2024-03-02T11:16:01.118Z,100407.69
2024-03-02T11:18:28.537Z,100405.34
2024-03-02T11:20:56.036Z,100398.94
2024-03-02T11:23:33.298Z,100400.22
2024-03-02T11:26:22.289Z,100400.50
2024-03-02T11:28:49.722Z,100391.72
2024-03-02T11:31:17.074Z,100393.66
2024-03-02T11:33:44.913Z,100389.25
2024-03-02T11:36:12.890Z,100383.91
2024-03-02T11:38:40.239Z,100393.22
2024-03-02T11:41:10.001Z,100387.44
2024-03-02T11:43:41.152Z,100393.13
2024-03-02T11:46:09.090Z,100391.91
2024-03-02T11:48:38.100Z,100399.84
2024-03-02T11:51:05.347Z,100402.75
2024-03-02T11:53:36.214Z,100402.06
2024-03-02T11:56:03.681Z,100396.59
2024-03-02T11:58:31.480Z,100400.66
2024-03-02T12:00:59.780Z,100398.19
2024-03-02T12:03:27.414Z,100398.09
2024-03-02T12:05:55.479Z,100398.16
2024-03-02T12:08:22.983Z,100401.63
2024-03-02T12:11:00.543Z,100398.44
2024-03-02T12:13:27.807Z,100394.81
2024-03-02T12:15:57.407Z,100390.31
2024-03-02T12:18:24.419Z,100382.56
2024-03-02T12:20:54.154Z,100391.13
2024-03-02T12:23:21.422Z,100388.75
2024-03-02T12:25:51.576Z,100381.22
2024-03-02T12:28:19.046Z,100373.06
2024-03-02T12:30:46.514Z,100378.38
2024-03-02T12:33:13.736Z,100373.66
2024-03-02T12:35:41.707Z,100372.00
2024-03-02T12:38:08.548Z,100373.75
2024-03-02T12:40:35.351Z,100365.31
2024-03-02T12:43:02.983Z,100356.59
2024-03-02T12:45:29.970Z,100362.91
2024-03-02T12:47:56.822Z,100360.47
2024-03-02T12:50:24.150Z,100363.84
2024-03-02T12:52:57.094Z,100364.78
2024-03-02T12:55:25.210Z,100364.38
2024-03-02T12:57:53.651Z,100359.41
2024-03-02T13:00:21.760Z,100358.78
2024-03-02T13:02:49.849Z,100357.44
2024-03-02T13:05:20.967Z,100372.97
2024-03-02T13:07:51.741Z,100364.00
2024-03-02T13:10:19.641Z,100366.09
2024-03-02T13:12:47.094Z,100357.91
2024-03-02T13:15:17.990Z,100355.72
2024-03-02T13:17:48.752Z,100356.75
2024-03-02T13:20:16.377Z,100356.75
2024-03-02T13:22:43.589Z,100357.53
2024-03-02T13:25:12.879Z,100351.59
2024-03-02T13:30:07.661Z,100358.09
2024-03-02T13:32:35.820Z,100351.94
2024-03-02T13:35:04.383Z,100350.81
2024-03-02T13:37:31.215Z,100359.91
2024-03-02T13:39:58.123Z,100354.31
2024-03-02T13:42:25.261Z,100352.91
2024-03-02T13:44:52.766Z,100350.25
2024-03-02T13:47:19.597Z,100346.50
2024-03-02T13:49:48.466Z,100351.66
2024-03-02T13:52:15.988Z,100350.22
2024-03-02T13:54:44.009Z,100350.50
2024-03-02T13:57:11.940Z,100349.78
2024-03-02T13:59:39.574Z,100338.16
2024-03-02T14:02:08.039Z,100342.50
2024-03-02T14:04:35.050Z,100340.66
2024-03-02T14:07:02.378Z,100341.09
2024-03-02T14:09:30.430Z,100338.81
2024-03-02T14:11:57.724Z,100338.47
2024-03-02T14:14:24.655Z,100342.69
2024-03-02T14:16:51.972Z,100334.22
2024-03-02T14:19:18.824Z,100340.38
2024-03-02T14:21:45.980Z,100345.72
2024-03-02T14:24:13.087Z,100343.75
2024-03-02T14:26:40.363Z,100348.06
2024-03-02T14:29:07.620Z,100337.25
2024-03-02T14:31:34.424Z,100340.34
2024-03-02T14:34:01.700Z,100339.63
2024-03-02T14:36:29.583Z,100343.94
2024-03-02T14:38:56.993Z,100346.63
2024-03-02T14:41:25.873Z,100341.97
2024-03-02T14:43:53.350Z,100337.66
2024-03-02T14:46:20.860Z,100336.69
2024-03-02T14:48:48.207Z,100337.47
2024-03-02T14:51:15.498Z,100338.19
2024-03-02T14:53:43.245Z,100340.06
2024-03-02T14:56:11.011Z,100335.69
2024-03-02T14:58:38.220Z,100333.53
2024-03-02T15:01:06.522Z,100330.00
2024-03-02T15:03:34.018Z,100332.38
2024-03-02T15:06:00.952Z,100337.69
2024-03-02T15:08:28.021Z,100329.91
2024-03-02T15:10:57.419Z,100333.44
2024-03-02T15:13:24.502Z,100327.66
2024-03-02T15:15:52.103Z,100329.38
2024-03-02T15:18:19.147Z,100332.16
2024-03-02T15:20:46.374Z,100335.50
2024-03-02T15:23:13.191Z,100328.81
2024-03-02T15:25:40.043Z,100330.38
2024-03-02T15:28:07.406Z,100322.19
2024-03-02T15:30:37.780Z,100324.38
2024-03-02T15:33:05.030Z,100325.09
2024-03-02T15:35:32.718Z,100324.69
2024-03-02T15:37:59.557Z,100319.94
2024-03-02T15:40:26.446Z,100321.72
2024-03-02T15:42:53.248Z,100329.91
2024-03-02T15:45:20.126Z,100312.13
2024-03-02T15:47:47.021Z,100318.00
2024-03-02T15:50:20.036Z,100324.66
2024-03-02T15:52:48.204Z,100321.00
2024-03-02T15:55:15.123Z,100321.31
2024-03-02T15:57:46.727Z,100324.63
2024-03-02T16:00:13.880Z,100328.31
2024-03-02T16:02:40.706Z,100336.66
2024-03-02T16:05:07.748Z,100328.94
2024-03-02T16:07:35.502Z,100327.47
2024-03-02T16:10:06.096Z,100338.78
2024-03-02T16:12:33.079Z,100331.84
2024-03-02T16:15:00.025Z,100344.00
2024-03-02T16:17:27.972Z,100336.94
2024-03-02T16:19:54.806Z,100341.19
2024-03-02T16:22:23.461Z,100339.94
2024-03-02T16:24:50.967Z,100341.81
2024-03-02T16:27:19.456Z,100340.69
2024-03-02T16:29:48.021Z,100339.91
2024-03-02T16:32:14.846Z,100347.38
2024-03-02T16:34:45.195Z,100349.78
2024-03-02T16:37:12.102Z,100345.09
2024-03-02T16:39:39.034Z,100344.78
2024-03-02T16:42:05.831Z,100343.03
2024-03-02T16:44:35.659Z,100348.56
2024-03-02T16:47:02.514Z,100338.97
2024-03-02T16:49:30.165Z,100351.53
2024-03-02T16:51:57.012Z,100345.25
2024-03-02T16:54:23.886Z,100349.28
2024-03-02T16:56:50.709Z,100348.44
2024-03-02T16:59:17.940Z,100350.34
2024-03-02T17:01:44.798Z,100354.59
2024-03-02T17:04:11.692Z,100366.72
2024-03-02T17:06:38.542Z,100363.84
2024-03-02T17:09:05.441Z,100369.31
2024-03-02T17:11:32.400Z,100374.50
2024-03-02T17:14:04.571Z,100377.72
2024-03-02T17:16:31.961Z,100382.91
2024-03-02T17:18:59.201Z,100381.38
2024-03-02T17:21:26.581Z,100388.09
2024-03-02T17:23:53.473Z,100383.53
2024-03-02T17:26:20.240Z,100390.97
2024-03-02T17:28:50.023Z,100390.34
2024-03-02T17:31:16.920Z,100391.41
2024-03-02T17:33:43.821Z,100394.94
2024-03-02T17:36:10.705Z,100400.56
2024-03-02T17:38:37.513Z,100399.44
2024-03-02T17:41:06.314Z,100395.53
2024-03-02T17:43:33.151Z,100412.75
2024-03-02T17:46:00.924Z,100406.53
2024-03-02T17:48:31.189Z,100413.53
2024-03-02T17:50:58.004Z,100409.03
2024-03-02T17:53:24.811Z,100411.44
2024-03-02T17:55:51.763Z,100409.03
2024-03-02T17:58:18.825Z,100409.84
2024-03-02T18:00:46.333Z,100406.44
2024-03-02T18:03:13.461Z,100408.16
2024-03-02T18:05:40.272Z,100401.16
2024-03-02T18:08:07.671Z,100403.28
2024-03-02T18:10:35.130Z,100402.97
2024-03-02T18:13:02.108Z,100412.91
2024-03-02T18:15:29.067Z,100404.97
2024-03-02T18:17:56.008Z,100408.50
2024-03-02T18:20:22.805Z,100410.72
2024-03-02T18:22:49.675Z,100409.31
2024-03-02T18:25:16.634Z,100412.88
2024-03-02T18:27:43.663Z,100403.38
2024-03-02T18:30:13.847Z,100410.78
2024-03-02T18:32:40.702Z,100408.28
2024-03-02T18:35:09.878Z,100406.81
2024-03-02T18:37:39.381Z,100407.97
2024-03-02T18:40:07.046Z,100404.81
2024-03-02T18:42:34.094Z,100413.78
2024-03-02T18:45:04.876Z,100415.03
2024-03-02T18:47:36.506Z,100413.63
2024-03-02T18:50:06.799Z,100410.81
2024-03-02T18:52:36.351Z,100413.38
2024-03-02T18:55:04.651Z,100402.16
2024-03-02T18:57:32.065Z,100400.38
2024-03-02T18:59:59.012Z,100397.88
2024-03-02T19:02:26.301Z,100393.84
2024-03-02T19:04:53.389Z,100392.84
2024-03-02T19:07:20.155Z,100394.78
2024-03-02T19:09:47.773Z,100398.09
2024-03-02T19:12:15.517Z,100396.22
2024-03-02T19:14:42.279Z,100397.06
2024-03-02T19:17:09.188Z,100393.72
2024-03-02T19:19:36.040Z,100394.59
2024-03-02T19:22:08.299Z,100391.44
2024-03-02T19:24:39.368Z,100391.06
2024-03-02T19:27:07.684Z,100386.88
2024-03-02T19:29:34.821Z,100379.94
2024-03-02T19:32:08.071Z,100380.66
2024-03-02T19:34:39.077Z,100378.13
2024-03-02T19:37:06.249Z,100379.97
2024-03-02T19:39:37.813Z,100378.38
2024-03-02T19:42:08.840Z,100380.97
2024-03-02T19:44:35.760Z,100373.94
2024-03-02T19:47:03.783Z,100376.66
2024-03-02T19:49:30.748Z,100380.38
2024-03-02T19:51:57.695Z,100369.69
2024-03-02T19:54:24.630Z,100369.69
2024-03-02T19:56:55.771Z,100366.50
2024-03-02T19:59:23.409Z,100373.41
2024-03-02T20:01:50.621Z,100368.19
2024-03-02T20:04:18.125Z,100367.28
2024-03-02T20:06:45.118Z,100368.13
2024-03-02T20:09:13.442Z,100362.88
2024-03-02T20:11:40.342Z,100357.72
2024-03-02T20:14:07.187Z,100358.66
2024-03-02T20:16:34.094Z,100362.88
2024-03-02T20:19:01.351Z,100361.16
2024-03-02T20:21:28.323Z,100354.19
2024-03-02T20:23:55.661Z,100353.53
2024-03-02T20:26:23.549Z,100361.25
2024-03-02T20:28:54.556Z,100350.72
2024-03-02T20:31:22.015Z,100358.84
2024-03-02T20:33:49.107Z,100353.72
2024-03-02T20:36:16.970Z,100349.31
2024-03-02T20:38:44.123Z,100357.13
2024-03-02T20:41:17.322Z,100345.72
2024-03-02T20:43:44.856Z,100350.28
2024-03-02T20:46:12.808Z,100344.19
2024-03-02T20:48:40.686Z,100347.63
2024-03-02T20:51:07.794Z,100345.09
2024-03-02T20:53:34.838Z,100344.31
2024-03-02T20:56:01.825Z,100347.84
2024-03-02T20:58:28.756Z,100343.56
2024-03-02T21:00:56.266Z,100351.53
2024-03-02T21:03:24.092Z,100346.25
2024-03-02T21:05:50.988Z,100348.84
2024-03-02T21:08:20.866Z,100350.13
2024-03-02T21:10:49.861Z,100345.72
2024-03-02T21:13:17.816Z,100347.47
2024-03-02T21:15:45.118Z,100347.56
2024-03-02T21:18:12.176Z,100343.91
2024-03-02T21:20:38.989Z,100346.63
2024-03-02T21:23:05.907Z,100339.66
2024-03-02T21:25:36.758Z,100349.56
2024-03-02T21:28:04.430Z,100345.25
2024-03-02T21:30:32.211Z,100341.66
2024-03-02T21:32:59.528Z,100336.31
2024-03-02T21:35:28.678Z,100341.91
2024-03-02T21:37:56.961Z,100343.56
2024-03-02T21:40:24.648Z,100342.69
2024-03-02T21:42:52.258Z,100346.28
2024-03-02T21:45:19.464Z,100338.44
2024-03-02T21:47:47.255Z,100338.34
2024-03-02T21:50:14.217Z,100335.78
2024-03-02T21:52:40.996Z,100337.56
2024-03-02T21:55:11.259Z,100332.25
2024-03-02T21:57:38.657Z,100335.09
2024-03-02T22:00:06.266Z,100328.00
2024-03-02T22:02:39.353Z,100330.22
2024-03-02T22:05:07.130Z,100330.63
2024-03-02T22:07:34.526Z,100318.28
2024-03-02T22:10:01.591Z,100318.56
2024-03-02T22:12:28.432Z,100320.25
2024-03-02T22:14:55.227Z,100329.28
2024-03-02T22:17:24.007Z,100316.91
2024-03-02T22:19:50.968Z,100316.63
2024-03-02T22:22:18.031Z,100314.16
2024-03-02T22:24:45.088Z,100316.81
2024-03-02T22:27:12.146Z,100322.25
2024-03-02T22:29:41.506Z,100315.31
2024-03-02T22:32:08.610Z,100315.41
2024-03-02T22:34:36.110Z,100305.72
2024-03-02T22:37:03.613Z,100313.34
2024-03-02T22:39:30.463Z,100303.00
2024-03-02T22:41:57.273Z,100310.03
2024-03-02T22:44:24.113Z,100309.00
2024-03-02T22:46:56.798Z,100305.72
2024-03-02T22:49:23.674Z,100305.59
2024-03-02T22:51:53.859Z,100309.06
2024-03-02T22:54:20.680Z,100300.53
2024-03-02T22:56:48.626Z,100300.59
2024-03-02T22:59:16.167Z,100303.13
2024-03-02T23:01:46.212Z,100296.16
2024-03-02T23:04:13.399Z,100295.38
2024-03-02T23:06:41.075Z,100303.25
2024-03-02T23:09:09.558Z,100296.19
2024-03-02T23:11:37.491Z,100287.56
2024-03-02T23:14:05.980Z,100288.81
2024-03-02T23:16:35.662Z,100293.00
2024-03-02T23:19:03.218Z,100289.28
2024-03-02T23:21:31.362Z,100281.72
2024-03-02T23:23:59.033Z,100290.34
2024-03-02T23:26:26.433Z,100279.69
2024-03-02T23:28:53.488Z,100283.22
2024-03-02T23:31:21.313Z,100272.59
2024-03-02T23:33:49.735Z,100273.50
2024-03-02T23:36:16.573Z,100280.56
2024-03-02T23:38:43.393Z,100276.41
2024-03-02T23:41:11.667Z,100275.91
2024-03-02T23:43:39.070Z,100275.50
2024-03-02T23:46:07.799Z,100271.91
2024-03-02T23:48:35.822Z,100272.78
2024-03-02T23:51:03.394Z,100277.28
2024-03-02T23:53:31.599Z,100271.06
2024-03-02T23:56:08.859Z,100272.84
2024-03-02T23:58:35.712Z,100274.59
